createdAt,value
2022-12-20T00:01:40.266Z,-4.19
2022-12-20T00:04:13.451Z,-4.23
2022-12-20T00:06:46.150Z,-4.30
2022-12-20T00:09:18.894Z,-4.39
2022-12-20T00:11:51.801Z,-4.42
2022-12-20T00:14:25.097Z,-4.40
2022-12-20T00:16:57.823Z,-4.36
2022-12-20T00:19:30.429Z,-4.34
2022-12-20T00:22:03.364Z,-4.28
2022-12-20T00:24:36.351Z,-4.22
2022-12-20T00:27:09.339Z,-4.18
2022-12-20T00:29:41.916Z,-4.19
2022-12-20T00:32:14.573Z,-4.20
2022-12-20T00:34:47.192Z,-4.23
2022-12-20T00:37:19.912Z,-4.26
2022-12-20T00:39:52.585Z,-4.28
2022-12-20T00:42:26.271Z,-4.34
2022-12-20T00:44:59.217Z,-4.34
2022-12-20T00:47:32.458Z,-4.41
2022-12-20T00:50:05.432Z,-4.51
2022-12-20T00:52:38.187Z,-4.63
2022-12-20T00:55:11.218Z,-4.66
2022-12-20T00:57:43.943Z,-4.66
2022-12-20T01:00:17.993Z,-4.64
2022-12-20T01:02:51.848Z,-4.67
2022-12-20T01:05:24.773Z,-4.67
2022-12-20T01:07:57.913Z,-4.67
2022-12-20T01:10:30.591Z,-4.72
2022-12-20T01:13:04.239Z,-4.79
2022-12-20T01:15:37.893Z,-4.83
2022-12-20T01:18:10.681Z,-4.80
2022-12-20T01:20:43.942Z,-4.81
2022-12-20T01:23:16.830Z,-4.86
2022-12-20T01:25:52.604Z,-4.89
2022-12-20T01:28:25.403Z,-4.91
2022-12-20T01:30:58.466Z,-4.88
2022-12-20T01:33:31.278Z,-4.87
2022-12-20T01:36:07.620Z,-4.81
2022-12-20T01:38:40.876Z,-4.81
2022-12-20T01:41:19.784Z,-4.86
2022-12-20T01:44:01.601Z,-4.91
2022-12-20T01:46:37.433Z,-4.89
2022-12-20T01:49:23.325Z,-4.85
2022-12-20T01:52:00.216Z,-4.90
2022-12-20T01:54:47.345Z,-4.97
2022-12-20T01:57:45.502Z,-5.00
2022-12-20T02:00:19.239Z,-4.99
2022-12-20T02:02:52.951Z,-4.98
2022-12-20T02:05:26.071Z,-4.93
2022-12-20T02:07:59.680Z,-4.93
2022-12-20T02:10:49.036Z,-5.02
2022-12-20T02:13:36.384Z,-5.07
2022-12-20T02:16:09.218Z,-5.05
2022-12-20T02:18:53.581Z,-5.06
2022-12-20T02:21:36.455Z,-5.09
2022-12-20T02:24:51.138Z,-5.14
2022-12-20T02:27:46.976Z,-5.21
2022-12-20T02:30:22.789Z,-5.25
2022-12-20T02:33:05.552Z,-5.27
2022-12-20T02:35:40.620Z,-5.25
2022-12-20T02:38:33.522Z,-5.23
2022-12-20T02:41:20.451Z,-5.30
2022-12-20T02:44:15.974Z,-5.29
2022-12-20T02:46:49.598Z,-5.29
2022-12-20T02:49:25.519Z,-5.27
2022-12-20T02:51:59.349Z,-5.25
2022-12-20T02:54:32.583Z,-5.28
2022-12-20T02:57:15.918Z,-5.23
2022-12-20T03:00:11.804Z,-5.17
2022-12-20T03:03:05.031Z,-5.13
2022-12-20T03:05:42.765Z,-5.18
2022-12-20T03:08:15.938Z,-5.22
2022-12-20T03:10:49.126Z,-5.22
2022-12-20T03:13:23.334Z,-5.22
2022-12-20T03:16:07.094Z,-5.25
2022-12-20T03:18:40.951Z,-5.31
2022-12-20T03:21:14.227Z,-5.38
2022-12-20T03:23:47.345Z,-5.43
2022-12-20T03:26:20.014Z,-5.45
2022-12-20T03:28:54.341Z,-5.45
2022-12-20T03:31:28.582Z,-5.44
2022-12-20T03:34:01.322Z,-5.41
2022-12-20T03:36:34.911Z,-5.38
2022-12-20T03:39:08.860Z,-5.36
2022-12-20T03:41:43.718Z,-5.40
2022-12-20T03:44:17.851Z,-5.46
2022-12-20T03:46:50.703Z,-5.42
2022-12-20T03:49:23.395Z,-5.37
2022-12-20T03:51:56.691Z,-5.41
2022-12-20T03:54:29.518Z,-5.43
2022-12-20T03:57:07.351Z,-5.43
2022-12-20T03:59:40.108Z,-5.49
2022-12-20T04:02:13.515Z,-5.51
2022-12-20T04:04:46.759Z,-5.50
2022-12-20T04:07:19.854Z,-5.57
2022-12-20T04:09:52.616Z,-5.62
2022-12-20T04:12:25.429Z,-5.60
2022-12-20T04:14:58.183Z,-5.59
2022-12-20T04:17:33.293Z,-5.63
2022-12-20T04:20:09.666Z,-5.58
2022-12-20T04:22:42.737Z,-5.56
2022-12-20T04:25:17.143Z,-5.62
2022-12-20T04:27:49.981Z,-5.62
2022-12-20T04:30:22.941Z,-5.57
2022-12-20T04:32:56.652Z,-5.47
2022-12-20T04:35:30.694Z,-5.40
2022-12-20T04:38:03.923Z,-5.31
2022-12-20T04:40:37.203Z,-5.25
2022-12-20T04:43:11.733Z,-5.21
2022-12-20T04:45:45.211Z,-5.33
2022-12-20T04:48:54.665Z,-5.37
2022-12-20T04:50:54.025Z,-5.38
2022-12-20T04:53:37.317Z,-5.50
2022-12-20T04:56:10.865Z,-5.55
2022-12-20T04:58:43.997Z,-5.57
2022-12-20T05:01:17.207Z,-5.57
2022-12-20T05:03:51.929Z,-5.55
2022-12-20T05:06:25.336Z,-5.54
2022-12-20T05:08:58.095Z,-5.53
2022-12-20T05:11:31.623Z,-5.52
2022-12-20T05:14:04.603Z,-5.53
2022-12-20T05:16:38.058Z,-5.59
2022-12-20T05:19:11.235Z,-5.61
2022-12-20T05:22:02.838Z,-5.53
2022-12-20T05:24:54.439Z,-5.39
2022-12-20T05:27:34.865Z,-5.27
2022-12-20T05:30:10.025Z,-5.16
2022-12-20T05:32:43.050Z,-5.11
2022-12-20T05:35:16.159Z,-5.05
2022-12-20T05:37:50.032Z,-5.00
2022-12-20T05:40:24.104Z,-4.96
2022-12-20T05:42:57.123Z,-4.96
2022-12-20T05:45:31.605Z,-5.00
2022-12-20T05:48:07.171Z,-5.03
2022-12-20T05:50:41.347Z,-4.99
2022-12-20T05:53:27.840Z,-5.05
2022-12-20T05:56:03.384Z,-5.14
2022-12-20T05:58:39.092Z,-5.25
2022-12-20T06:01:12.552Z,-5.36
2022-12-20T06:03:46.124Z,-5.37
2022-12-20T06:06:20.796Z,-5.36
2022-12-20T06:08:56.369Z,-5.51
2022-12-20T06:11:30.844Z,-5.67
2022-12-20T06:14:07.948Z,-5.68
2022-12-20T06:16:42.521Z,-5.67
2022-12-20T06:19:21.159Z,-5.65
2022-12-20T06:21:50.756Z,-5.72
2022-12-20T06:24:27.020Z,-5.76
2022-12-20T06:26:59.875Z,-5.77
2022-12-20T06:29:34.501Z,-5.77
2022-12-20T06:32:09.050Z,-5.66
2022-12-20T06:34:43.257Z,-5.53
2022-12-20T06:37:16.765Z,-5.49
2022-12-20T06:39:50.009Z,-5.42
2022-12-20T06:42:22.986Z,-5.39
2022-12-20T06:44:56.019Z,-5.29
2022-12-20T06:47:28.789Z,-5.24
2022-12-20T06:50:02.167Z,-5.22
2022-12-20T06:52:35.015Z,-5.23
2022-12-20T06:55:08.007Z,-5.27
2022-12-20T06:57:43.395Z,-5.28
2022-12-20T07:00:17.558Z,-5.28
2022-12-20T07:02:50.477Z,-5.20
2022-12-20T07:05:23.527Z,-5.15
2022-12-20T07:07:57.056Z,-5.11
2022-12-20T07:10:30.120Z,-5.06
2022-12-20T07:13:03.450Z,-5.03
2022-12-20T07:15:36.056Z,-4.98
2022-12-20T07:18:09.750Z,-4.94
2022-12-20T07:20:42.554Z,-4.89
2022-12-20T07:23:15.790Z,-4.83
2022-12-20T07:25:56.920Z,-4.78
2022-12-20T07:28:30.969Z,-4.80
2022-12-20T07:31:05.139Z,-4.79
2022-12-20T07:33:39.691Z,-4.87
2022-12-20T07:36:14.580Z,-4.96
2022-12-20T07:38:47.671Z,-5.00
2022-12-20T07:41:21.015Z,-5.06
2022-12-20T07:43:53.919Z,-5.12
2022-12-20T07:46:27.236Z,-5.21
2022-12-20T07:49:01.179Z,-5.23
2022-12-20T07:51:50.060Z,-5.17
2022-12-20T07:54:32.437Z,-5.10
2022-12-20T07:57:10.255Z,-5.04
2022-12-20T07:59:46.638Z,-5.02
2022-12-20T08:02:24.012Z,-5.04
2022-12-20T08:04:57.853Z,-5.06
2022-12-20T08:07:31.511Z,-5.07
2022-12-20T08:10:05.624Z,-5.10
2022-12-20T08:12:39.043Z,-5.13
2022-12-20T08:15:12.583Z,-5.04
2022-12-20T08:17:45.389Z,-4.93
2022-12-20T08:20:19.968Z,-4.81
2022-12-20T08:22:52.061Z,-4.78
2022-12-20T08:25:25.972Z,-4.77
2022-12-20T08:28:00.324Z,-4.79
2022-12-20T08:30:33.405Z,-4.82
2022-12-20T08:33:06.663Z,-4.76
2022-12-20T08:35:39.752Z,-4.67
2022-12-20T08:38:12.449Z,-4.59
2022-12-20T08:40:45.146Z,-4.55
2022-12-20T08:43:17.877Z,-4.49
2022-12-20T08:45:59.979Z,-4.40
2022-12-20T08:48:32.914Z,-4.38
2022-12-20T08:51:09.612Z,-4.30
2022-12-20T08:53:42.653Z,-4.27
2022-12-20T08:56:18.446Z,-4.30
2022-12-20T08:58:51.650Z,-4.44
2022-12-20T09:01:27.092Z,-4.60
2022-12-20T09:04:00.852Z,-4.66
2022-12-20T09:06:36.205Z,-4.76
2022-12-20T09:09:09.191Z,-4.83
2022-12-20T09:11:42.488Z,-4.83
2022-12-20T09:14:15.475Z,-4.79
2022-12-20T09:16:48.384Z,-4.72
2022-12-20T09:19:21.331Z,-4.62
2022-12-20T09:21:55.725Z,-4.51
2022-12-20T09:24:29.043Z,-4.46
2022-12-20T09:27:02.389Z,-4.39
2022-12-20T09:29:36.256Z,-4.25
2022-12-20T09:32:09.146Z,-4.17
2022-12-20T09:34:41.966Z,-4.08
2022-12-20T09:37:14.637Z,-4.05
2022-12-20T09:39:49.171Z,-4.03
2022-12-20T09:42:25.920Z,-4.12
2022-12-20T09:45:09.187Z,-4.18
2022-12-20T09:47:42.485Z,-4.14
2022-12-20T09:50:17.628Z,-4.15
2022-12-20T09:52:55.154Z,-4.24
2022-12-20T09:55:44.730Z,-4.37
2022-12-20T09:58:40.066Z,-4.40
2022-12-20T10:01:23.009Z,-4.43
2022-12-20T10:03:53.514Z,-4.45
2022-12-20T10:06:45.543Z,-4.39
2022-12-20T10:09:45.191Z,-4.24
2022-12-20T10:12:34.630Z,-4.13
2022-12-20T10:15:41.750Z,-4.11
2022-12-20T10:18:46.572Z,-4.05
2022-12-20T10:21:38.563Z,-4.00
2022-12-20T10:24:33.071Z,-3.96
2022-12-20T10:27:19.111Z,-3.94
2022-12-20T10:29:52.031Z,-4.01
2022-12-20T10:32:29.308Z,-4.03
2022-12-20T10:35:33.890Z,-4.06
2022-12-20T10:38:16.930Z,-4.03
2022-12-20T10:41:22.559Z,-3.92
2022-12-20T10:44:01.294Z,-3.88
2022-12-20T10:46:55.925Z,-3.86
2022-12-20T10:49:38.281Z,-3.88
2022-12-20T10:52:15.745Z,-3.97
2022-12-20T10:54:49.170Z,-3.99
2022-12-20T10:57:33.730Z,-4.04
2022-12-20T11:00:09.412Z,-4.04
2022-12-20T11:02:43.986Z,-4.00
2022-12-20T11:05:24.340Z,-3.97
2022-12-20T11:08:39.278Z,-4.00
2022-12-20T11:10:55.267Z,-4.02
2022-12-20T11:13:29.701Z,-3.98
2022-12-20T11:16:02.732Z,-3.89
2022-12-20T11:18:54.575Z,-3.85
2022-12-20T11:21:54.953Z,-3.82
2022-12-20T11:24:56.205Z,-3.75
2022-12-20T11:27:45.268Z,-3.73
2022-12-20T11:30:21.732Z,-3.72
2022-12-20T11:33:20.413Z,-3.71
2022-12-20T11:36:01.185Z,-3.69
2022-12-20T11:38:53.415Z,-3.66
2022-12-20T11:41:40.114Z,-3.62
2022-12-20T11:44:50.114Z,-3.62
2022-12-20T11:48:02.633Z,-3.55
2022-12-20T11:50:52.270Z,-3.47
2022-12-20T11:53:35.642Z,-3.40
2022-12-20T11:56:16.160Z,-3.43
2022-12-20T11:58:52.778Z,-3.47
2022-12-20T12:01:39.199Z,-3.57
2022-12-20T12:04:22.073Z,-3.53
2022-12-20T12:06:59.951Z,-3.57
2022-12-20T12:09:55.600Z,-3.61
2022-12-20T12:12:41.348Z,-3.65
2022-12-20T12:15:40.070Z,-3.69
2022-12-20T12:18:20.378Z,-3.78
2022-12-20T12:21:26.308Z,-3.88
2022-12-20T12:24:18.465Z,-3.88
2022-12-20T12:26:51.205Z,-3.90
2022-12-20T12:29:24.668Z,-3.87
2022-12-20T12:32:22.052Z,-3.82
2022-12-20T12:35:22.170Z,-3.82
2022-12-20T12:38:08.543Z,-3.84
2022-12-20T12:41:03.343Z,-3.79
2022-12-20T12:43:44.089Z,-3.78
2022-12-20T12:46:29.544Z,-3.75
2022-12-20T12:49:21.920Z,-3.74
2022-12-20T12:52:01.717Z,-3.73
2022-12-20T12:54:40.765Z,-3.73
2022-12-20T12:57:17.532Z,-3.71
2022-12-20T12:59:52.724Z,-3.68
2022-12-20T13:02:29.269Z,-3.65
2022-12-20T13:05:19.424Z,-3.63
2022-12-20T13:07:51.244Z,-3.64
2022-12-20T13:10:29.845Z,-3.64
2022-12-20T13:13:04.382Z,-3.65
2022-12-20T13:15:45.627Z,-3.66
2022-12-20T13:18:24.711Z,-3.71
2022-12-20T13:21:21.973Z,-3.77
2022-12-20T13:24:18.640Z,-3.80
2022-12-20T13:26:55.853Z,-3.80
2022-12-20T13:29:35.182Z,-3.84
2022-12-20T13:32:30.281Z,-3.84
2022-12-20T13:35:03.114Z,-3.86
2022-12-20T13:37:59.433Z,-3.87
2022-12-20T13:40:45.909Z,-3.89
2022-12-20T13:43:26.430Z,-3.91
2022-12-20T13:46:18.372Z,-3.95
2022-12-20T13:49:02.423Z,-3.98
2022-12-20T13:51:35.302Z,-4.03
2022-12-20T13:54:12.841Z,-4.05
2022-12-20T13:56:49.798Z,-4.06
2022-12-20T13:59:27.351Z,-4.10
2022-12-20T14:02:07.161Z,-4.14
2022-12-20T14:04:46.227Z,-4.17
2022-12-20T14:07:20.394Z,-4.11
2022-12-20T14:10:01.071Z,-4.08
2022-12-20T14:12:37.043Z,-4.10
2022-12-20T14:15:22.470Z,-4.14
2022-12-20T14:17:56.019Z,-4.16
2022-12-20T14:20:30.848Z,-4.18
2022-12-20T14:23:12.530Z,-4.20
2022-12-20T14:25:52.645Z,-4.24
2022-12-20T14:28:32.639Z,-4.25
2022-12-20T14:31:08.749Z,-4.26
2022-12-20T14:33:43.223Z,-4.24
2022-12-20T14:36:22.305Z,-4.15
2022-12-20T14:38:55.175Z,-4.07
2022-12-20T14:41:40.845Z,-4.01
2022-12-20T14:44:19.186Z,-4.01
2022-12-20T14:46:59.033Z,-4.06
2022-12-20T14:49:34.655Z,-4.08
2022-12-20T14:52:22.876Z,-4.10
2022-12-20T14:55:08.242Z,-4.10
2022-12-20T14:57:42.134Z,-4.03
2022-12-20T15:00:25.086Z,-3.90
2022-12-20T15:03:13.883Z,-3.90
2022-12-20T15:05:58.652Z,-3.93
2022-12-20T15:08:33.363Z,-3.96
2022-12-20T15:11:13.807Z,-3.96
2022-12-20T15:13:50.403Z,-3.89
2022-12-20T15:16:30.117Z,-3.83
2022-12-20T15:19:05.142Z,-3.78
2022-12-20T15:21:43.145Z,-3.81
2022-12-20T15:24:23.688Z,-3.82
2022-12-20T15:26:57.280Z,-3.86
2022-12-20T15:29:30.915Z,-3.85
2022-12-20T15:32:17.389Z,-3.78
2022-12-20T15:34:50.096Z,-3.73
2022-12-20T15:37:22.944Z,-3.66
2022-12-20T15:39:55.662Z,-3.59
2022-12-20T15:42:28.385Z,-3.55
2022-12-20T15:45:01.081Z,-3.52
2022-12-20T15:47:34.184Z,-3.50
2022-12-20T15:50:08.753Z,-3.47
2022-12-20T15:52:41.719Z,-3.45
2022-12-20T15:55:14.485Z,-3.46
2022-12-20T15:57:47.553Z,-3.47
2022-12-20T19:02:56.804Z,-4.56
2022-12-20T19:18:37.610Z,-3.53
2022-12-20T19:21:27.008Z,-3.54
2022-12-20T19:24:05.316Z,-3.46
2022-12-20T19:26:39.951Z,-3.38
2022-12-20T19:29:12.667Z,-3.33
2022-12-20T19:31:45.622Z,-3.21
2022-12-20T19:34:18.978Z,-3.09
2022-12-20T19:36:53.060Z,-3.01
2022-12-20T19:39:25.859Z,-2.95
2022-12-20T19:44:34.413Z,-2.84
2022-12-20T19:47:07.572Z,-2.82
2022-12-20T19:49:40.559Z,-2.82
2022-12-20T19:52:13.294Z,-2.83
2022-12-20T19:54:46.231Z,-2.81
2022-12-20T19:57:18.962Z,-2.79
2022-12-20T19:59:56.045Z,-2.79
2022-12-20T20:02:27.664Z,-2.79
2022-12-20T20:05:00.818Z,-2.78
2022-12-20T20:07:34.004Z,-2.80
2022-12-20T20:10:08.535Z,-2.87
2022-12-20T20:12:42.171Z,-2.94
2022-12-20T20:15:15.027Z,-2.99
2022-12-20T20:17:47.676Z,-2.98
2022-12-20T20:20:21.003Z,-2.98
2022-12-20T20:22:53.868Z,-2.99
2022-12-20T20:25:26.645Z,-2.99
2022-12-20T20:27:59.437Z,-2.98
2022-12-20T20:30:32.404Z,-2.95
2022-12-20T20:33:05.401Z,-2.92
2022-12-20T20:35:39.110Z,-2.87
2022-12-20T20:38:13.461Z,-2.85
2022-12-20T20:40:46.517Z,-2.86
2022-12-20T20:43:20.133Z,-2.92
2022-12-20T20:45:53.163Z,-2.97
2022-12-20T20:48:26.493Z,-3.03
2022-12-20T20:51:00.149Z,-3.07
2022-12-20T20:53:34.437Z,-3.10
2022-12-20T20:56:08.882Z,-3.08
2022-12-20T20:58:42.283Z,-3.08
2022-12-20T21:01:15.497Z,-3.05
2022-12-20T21:03:48.957Z,-2.83
2022-12-20T21:08:58.099Z,-2.75
2022-12-20T21:11:31.042Z,-2.67
2022-12-20T21:14:04.322Z,-2.61
2022-12-20T21:16:37.456Z,-2.59
2022-12-20T21:19:12.000Z,-2.57
2022-12-20T21:21:44.816Z,-2.51
2022-12-20T21:24:17.819Z,-2.47
2022-12-20T21:26:53.324Z,-2.44
2022-12-20T21:29:26.187Z,-2.42
2022-12-20T21:31:59.193Z,-2.39
2022-12-20T21:34:32.240Z,-2.44
2022-12-20T21:37:07.078Z,-2.46
2022-12-20T21:39:39.988Z,-2.45
2022-12-20T21:42:12.805Z,-2.44
2022-12-20T21:44:45.740Z,-2.42
2022-12-20T21:47:18.833Z,-2.41
2022-12-20T21:49:51.802Z,-2.41
2022-12-20T21:52:24.686Z,-2.39
2022-12-20T21:54:58.355Z,-2.38
2022-12-20T21:57:31.639Z,-2.40
2022-12-20T22:00:06.056Z,-2.39
2022-12-20T22:02:40.200Z,-2.38
2022-12-20T22:05:12.993Z,-2.37
2022-12-20T22:07:47.988Z,-2.37
2022-12-20T22:10:20.879Z,-2.36
2022-12-20T22:12:55.127Z,-2.34
2022-12-20T22:15:28.132Z,-2.34
2022-12-20T22:18:00.977Z,-2.36
2022-12-20T22:20:35.300Z,-2.38
2022-12-20T22:23:08.044Z,-2.37
2022-12-20T22:25:41.650Z,-2.38
2022-12-20T22:28:14.590Z,-2.38
2022-12-20T22:30:47.632Z,-2.39
2022-12-20T22:33:20.581Z,-2.39
2022-12-20T22:35:53.719Z,-2.41
2022-12-20T22:38:26.589Z,-2.39
2022-12-20T22:41:17.319Z,-2.38
2022-12-20T22:43:51.016Z,-2.33
2022-12-20T22:46:24.330Z,-2.31
2022-12-20T22:48:57.685Z,-2.28
2022-12-20T22:51:32.873Z,-2.26
2022-12-20T22:54:05.794Z,-2.24
2022-12-20T22:56:38.557Z,-2.23
2022-12-20T22:59:11.269Z,-2.26
2022-12-20T23:01:44.409Z,-2.31
2022-12-20T23:04:17.668Z,-2.36
2022-12-20T23:06:50.681Z,-2.38
2022-12-20T23:09:28.624Z,-2.41
2022-12-20T23:12:19.512Z,-2.40
2022-12-20T23:15:10.812Z,-2.43
2022-12-20T23:17:43.632Z,-2.44
2022-12-20T23:20:34.300Z,-2.37
2022-12-20T23:23:07.836Z,-2.32
2022-12-20T23:25:42.237Z,-2.31
2022-12-20T23:28:14.943Z,-2.31
2022-12-20T23:30:47.880Z,-2.28
2022-12-20T23:33:20.577Z,-2.32
2022-12-20T23:36:01.012Z,-2.38
2022-12-20T23:38:39.017Z,-2.45
2022-12-20T23:41:15.539Z,-2.49
2022-12-20T23:43:48.556Z,-2.45
2022-12-20T23:46:25.000Z,-2.40
2022-12-20T23:49:00.105Z,-2.35
2022-12-20T23:51:34.525Z,-2.35
2022-12-20T23:54:07.536Z,-2.35
2022-12-20T23:56:40.410Z,-2.39
2022-12-20T23:59:13.077Z,-2.38
